createdAt,value
2023-05-09T00:01:08.422Z,14.77
2023-05-09T00:03:38.637Z,14.77
2023-05-09T00:06:09.517Z,14.80
2023-05-09T00:08:41.198Z,14.82
2023-05-09T00:11:11.628Z,14.83
2023-05-09T00:13:43.894Z,14.84
2023-05-09T00:16:14.309Z,14.85
2023-05-09T00:18:44.729Z,14.84
2023-05-09T00:21:15.912Z,14.84
2023-05-09T00:23:46.857Z,14.84
2023-05-09T00:26:17.514Z,14.84
2023-05-09T00:28:47.932Z,14.83
2023-05-09T00:31:18.409Z,14.81
2023-05-09T00:33:49.749Z,14.80
2023-05-09T00:36:20.416Z,14.77
2023-05-09T00:38:50.986Z,14.76
2023-05-09T00:41:21.639Z,14.75
2023-05-09T00:43:51.994Z,14.75
2023-05-09T00:46:24.271Z,14.75
2023-05-09T00:48:55.025Z,14.73
2023-05-09T00:51:25.754Z,14.71
2023-05-09T00:53:56.468Z,14.70
2023-05-09T00:56:26.825Z,14.69
2023-05-09T00:58:58.121Z,14.68
2023-05-09T01:01:29.008Z,14.67
2023-05-09T01:03:59.832Z,14.65
2023-05-09T01:06:39.418Z,14.64
2023-05-09T01:09:18.454Z,14.63
2023-05-09T01:11:56.416Z,14.62
2023-05-09T01:14:42.593Z,14.61
2023-05-09T01:17:17.375Z,14.57
2023-05-09T01:20:06.198Z,14.55
2023-05-09T01:22:38.674Z,14.54
2023-05-09T01:25:19.940Z,14.53
2023-05-09T01:27:58.408Z,14.52
2023-05-09T01:30:30.323Z,14.52
2023-05-09T01:33:01.938Z,14.50
2023-05-09T01:35:33.856Z,14.47
2023-05-09T01:38:05.815Z,14.44
2023-05-09T01:40:36.934Z,14.43
2023-05-09T01:43:09.825Z,14.42
2023-05-09T01:45:41.181Z,14.41
2023-05-09T01:48:12.908Z,14.41
2023-05-09T01:50:45.463Z,14.40
2023-05-09T01:53:16.101Z,14.40
2023-05-09T01:55:47.311Z,14.39
2023-05-09T01:58:17.815Z,14.38
2023-05-09T02:00:49.687Z,14.39
2023-05-09T02:03:20.914Z,14.41
2023-05-09T02:05:52.302Z,14.43
2023-05-09T02:08:24.259Z,14.46
2023-05-09T02:10:54.799Z,14.48
2023-05-09T02:13:25.259Z,14.53
2023-05-09T02:15:56.870Z,14.57
2023-05-09T02:18:29.657Z,14.60
2023-05-09T02:21:00.689Z,14.63
2023-05-09T02:23:31.727Z,14.65
2023-05-09T02:26:03.157Z,14.70
2023-05-09T02:28:33.422Z,14.75
2023-05-09T02:31:06.635Z,14.82
2023-05-09T02:33:38.359Z,14.90
2023-05-09T02:36:11.300Z,14.99
2023-05-09T02:38:42.472Z,15.09
2023-05-09T02:41:15.764Z,15.20
2023-05-09T02:43:47.002Z,15.33
2023-05-09T02:46:17.578Z,15.70
2023-05-09T02:48:47.826Z,16.57
2023-05-09T02:51:19.099Z,16.81
2023-05-09T02:53:49.259Z,16.87
2023-05-09T02:56:19.836Z,16.91
2023-05-09T02:58:51.093Z,16.94
2023-05-09T03:01:23.504Z,16.94
2023-05-09T03:03:54.512Z,16.94
2023-05-09T03:06:25.192Z,16.99
2023-05-09T03:08:55.730Z,17.07
2023-05-09T03:11:25.903Z,17.17
2023-05-09T03:13:57.451Z,17.26
2023-05-09T03:16:27.892Z,17.39
2023-05-09T03:18:58.319Z,17.52
2023-05-09T03:21:28.822Z,18.01
2023-05-09T03:23:59.864Z,18.75
2023-05-09T03:26:30.087Z,18.88
2023-05-09T03:29:00.586Z,19.10
2023-05-09T03:31:31.598Z,18.97
2023-05-09T03:34:01.885Z,18.93
2023-05-09T03:36:32.939Z,18.75
2023-05-09T03:39:03.421Z,18.48
2023-05-09T03:41:35.885Z,18.29
2023-05-09T03:44:07.323Z,18.18
2023-05-09T03:46:37.632Z,18.13
2023-05-09T03:49:08.078Z,18.06
2023-05-09T03:51:39.978Z,17.94
2023-05-09T03:54:12.238Z,17.87
2023-05-09T03:56:42.814Z,17.89
2023-05-09T03:59:13.793Z,17.98
2023-05-09T04:01:44.986Z,18.10
2023-05-09T04:04:15.476Z,18.26
2023-05-09T04:06:46.307Z,18.45
2023-05-09T04:09:16.569Z,18.63
2023-05-09T04:11:47.024Z,18.85
2023-05-09T04:14:18.070Z,19.08
2023-05-09T04:16:48.390Z,19.36
2023-05-09T04:19:18.641Z,19.64
2023-05-09T04:21:48.862Z,19.90
2023-05-09T04:24:19.115Z,20.11
2023-05-09T04:26:49.521Z,20.26
2023-05-09T04:29:20.067Z,21.56
2023-05-09T04:31:50.791Z,23.67
2023-05-09T04:34:21.186Z,25.33
2023-05-09T04:36:52.206Z,25.66
2023-05-09T04:39:23.510Z,26.11
2023-05-09T04:41:55.014Z,27.35
2023-05-09T04:44:26.626Z,27.89
2023-05-09T04:46:57.903Z,28.79
2023-05-09T04:49:28.671Z,30.92
2023-05-09T04:51:59.049Z,32.65
2023-05-09T04:54:29.489Z,34.58
2023-05-09T04:57:09.923Z,36.11
2023-05-09T04:59:47.240Z,37.42
2023-05-09T05:02:17.569Z,38.89
2023-05-09T05:04:47.907Z,40.19
2023-05-09T05:07:18.750Z,41.07
2023-05-09T05:09:49.240Z,42.08
2023-05-09T05:12:19.977Z,43.19
2023-05-09T05:14:50.365Z,44.11
2023-05-09T05:17:20.590Z,45.09
2023-05-09T05:19:51.735Z,45.38
2023-05-09T05:22:22.919Z,45.75
2023-05-09T05:24:53.463Z,46.24
2023-05-09T05:27:23.801Z,45.70
2023-05-09T05:29:57.109Z,45.18
2023-05-09T05:32:28.212Z,45.41
2023-05-09T05:34:58.639Z,45.89
2023-05-09T05:37:28.971Z,46.46
2023-05-09T05:39:59.664Z,46.88
2023-05-09T05:42:29.923Z,47.41
2023-05-09T05:45:04.179Z,47.67
2023-05-09T05:47:35.077Z,47.88
2023-05-09T05:50:08.670Z,48.26
2023-05-09T05:52:39.238Z,48.74
2023-05-09T05:55:10.689Z,49.01
2023-05-09T05:57:41.154Z,49.39
2023-05-09T06:00:15.151Z,50.02
2023-05-09T06:02:45.813Z,50.79
2023-05-09T06:05:16.693Z,51.24
2023-05-09T06:07:47.806Z,51.71
2023-05-09T06:10:18.450Z,52.18
2023-05-09T06:12:49.326Z,52.31
2023-05-09T06:15:19.824Z,51.71
2023-05-09T06:17:50.852Z,50.88
2023-05-09T06:20:22.473Z,50.36
2023-05-09T06:22:53.513Z,49.33
2023-05-09T06:25:24.486Z,48.69
2023-05-09T06:27:55.553Z,48.60
2023-05-09T06:30:26.989Z,48.63
2023-05-09T06:32:58.586Z,48.95
2023-05-09T06:35:32.618Z,49.19
2023-05-09T06:38:02.943Z,49.37
2023-05-09T06:40:33.430Z,49.65
2023-05-09T06:43:04.524Z,49.85
2023-05-09T06:45:35.086Z,49.88
2023-05-09T06:48:08.067Z,49.49
2023-05-09T06:50:38.863Z,49.05
2023-05-09T06:53:09.798Z,48.90
2023-05-09T06:55:46.385Z,48.93
2023-05-09T06:58:17.074Z,48.76
2023-05-09T07:00:49.461Z,48.49
2023-05-09T07:03:19.902Z,48.20
2023-05-09T07:05:52.380Z,47.32
2023-05-09T07:08:22.638Z,45.35
2023-05-09T07:10:52.950Z,43.02
2023-05-09T07:13:23.418Z,40.68
2023-05-09T07:15:55.811Z,38.44
2023-05-09T07:18:29.515Z,36.50
2023-05-09T07:21:02.481Z,35.03
2023-05-09T07:23:32.702Z,33.79
2023-05-09T07:26:03.232Z,32.72
2023-05-09T07:28:34.064Z,32.02
2023-05-09T07:31:05.672Z,31.51
2023-05-09T07:33:36.120Z,31.21
2023-05-09T07:36:08.128Z,30.98
2023-05-09T07:38:39.897Z,30.75
2023-05-09T07:41:12.340Z,30.54
2023-05-09T07:43:44.345Z,30.36
2023-05-09T07:46:15.476Z,30.14
2023-05-09T07:48:57.339Z,29.99
2023-05-09T07:51:28.259Z,29.92
2023-05-09T07:54:04.485Z,29.83
2023-05-09T07:56:41.242Z,29.73
2023-05-09T07:59:12.728Z,29.73
2023-05-09T08:01:43.048Z,29.73
2023-05-09T08:04:13.924Z,29.75
2023-05-09T08:06:44.408Z,29.70
2023-05-09T08:09:14.830Z,29.66
2023-05-09T08:11:45.028Z,29.67
2023-05-09T08:14:17.418Z,29.64
2023-05-09T08:16:47.827Z,29.52
2023-05-09T08:19:20.777Z,29.32
2023-05-09T08:21:51.357Z,29.08
2023-05-09T08:24:22.123Z,28.87
2023-05-09T08:26:52.401Z,28.62
2023-05-09T08:29:23.495Z,28.43
2023-05-09T08:31:54.210Z,28.23
2023-05-09T08:34:26.182Z,28.00
2023-05-09T08:36:59.400Z,27.67
2023-05-09T08:39:30.078Z,27.42
2023-05-09T08:42:01.663Z,27.25
2023-05-09T08:44:32.512Z,27.06
2023-05-09T08:47:05.560Z,26.93
2023-05-09T08:49:37.510Z,26.67
2023-05-09T08:52:11.882Z,26.35
2023-05-09T08:54:42.801Z,26.25
2023-05-09T08:57:13.053Z,26.22
2023-05-09T08:59:45.309Z,26.21
2023-05-09T09:02:16.344Z,26.19
2023-05-09T09:04:48.491Z,26.07
2023-05-09T09:07:20.861Z,25.91
2023-05-09T09:10:03.498Z,25.85
2023-05-09T09:12:35.279Z,25.82
2023-05-09T09:15:08.101Z,25.78
2023-05-09T09:17:43.725Z,25.66
2023-05-09T09:20:16.651Z,25.59
2023-05-09T09:22:49.912Z,25.52
2023-05-09T09:25:20.756Z,25.36
2023-05-09T09:27:52.219Z,25.27
2023-05-09T09:30:26.311Z,25.28
2023-05-09T09:32:56.988Z,25.40
2023-05-09T09:35:28.273Z,25.47
2023-05-09T09:38:03.006Z,25.53
2023-05-09T09:40:34.286Z,25.58
2023-05-09T09:43:08.094Z,25.70
2023-05-09T09:45:41.219Z,25.79
2023-05-09T09:48:14.246Z,25.79
2023-05-09T09:50:46.983Z,25.88
2023-05-09T09:53:17.372Z,25.93
2023-05-09T09:55:57.258Z,26.04
2023-05-09T09:58:36.607Z,26.31
2023-05-09T10:01:10.038Z,26.61
2023-05-09T10:03:41.863Z,26.83
2023-05-09T10:06:14.869Z,27.00
2023-05-09T10:08:47.246Z,27.15
2023-05-09T10:11:18.340Z,27.33
2023-05-09T10:13:48.623Z,27.54
2023-05-09T10:16:25.816Z,27.73
2023-05-09T10:19:02.447Z,27.84
2023-05-09T10:21:32.851Z,27.93
2023-05-09T10:24:05.638Z,27.98
2023-05-09T10:26:39.095Z,27.98
2023-05-09T10:29:12.299Z,27.90
2023-05-09T10:31:43.857Z,27.70
2023-05-09T10:34:14.773Z,27.36
2023-05-09T10:36:45.593Z,27.06
2023-05-09T10:39:16.728Z,26.83
2023-05-09T10:41:49.599Z,26.65
2023-05-09T10:44:20.642Z,26.59
2023-05-09T10:46:51.201Z,26.61
2023-05-09T10:49:22.197Z,26.67
2023-05-09T10:51:53.021Z,26.69
2023-05-09T10:54:33.066Z,26.70
2023-05-09T10:57:05.578Z,26.65
2023-05-09T10:59:37.894Z,26.59
2023-05-09T11:02:14.363Z,26.55
2023-05-09T11:04:46.447Z,26.50
2023-05-09T11:07:29.962Z,26.39
2023-05-09T11:10:13.667Z,26.39
2023-05-09T11:13:00.627Z,26.41
2023-05-09T11:15:31.905Z,26.35
2023-05-09T11:18:10.809Z,26.30
2023-05-09T11:20:46.143Z,26.28
2023-05-09T11:23:17.644Z,26.24
2023-05-09T11:25:49.433Z,26.24
2023-05-09T11:28:29.538Z,26.24
2023-05-09T11:31:11.777Z,26.20
2023-05-09T11:33:43.525Z,26.15
2023-05-09T11:36:25.081Z,26.14
2023-05-09T11:39:07.835Z,26.12
2023-05-09T11:41:46.959Z,26.09
2023-05-09T11:44:21.230Z,26.06
2023-05-09T11:46:51.961Z,26.05
2023-05-09T11:49:25.094Z,26.07
2023-05-09T11:51:57.080Z,26.08
2023-05-09T11:54:27.581Z,26.08
2023-05-09T11:56:59.723Z,26.07
2023-05-09T11:59:30.057Z,26.07
2023-05-09T12:02:05.777Z,26.08
2023-05-09T12:04:39.540Z,26.10
2023-05-09T12:07:13.145Z,26.10
2023-05-09T12:09:44.524Z,26.03
2023-05-09T12:12:20.531Z,25.92
2023-05-09T12:14:51.966Z,25.77
2023-05-09T12:17:22.912Z,25.61
2023-05-09T12:19:54.050Z,25.48
2023-05-09T12:22:29.671Z,25.37
2023-05-09T12:25:02.403Z,25.28
2023-05-09T12:27:33.419Z,25.20
2023-05-09T12:30:08.242Z,25.14
2023-05-09T12:32:39.842Z,25.11
2023-05-09T12:35:11.550Z,25.11
2023-05-09T12:37:58.287Z,25.14
2023-05-09T12:40:31.159Z,25.22
2023-05-09T12:43:04.100Z,25.34
2023-05-09T12:45:39.134Z,25.46
2023-05-09T12:48:11.726Z,25.61
2023-05-09T12:50:47.604Z,25.74
2023-05-09T12:53:25.479Z,25.86
2023-05-09T12:56:03.408Z,26.01
2023-05-09T12:58:33.949Z,26.14
2023-05-09T13:01:05.853Z,26.24
2023-05-09T13:03:38.254Z,26.29
2023-05-09T13:06:14.738Z,26.30
2023-05-09T13:08:46.040Z,26.31
2023-05-09T13:11:18.957Z,26.28
2023-05-09T13:13:49.165Z,26.26
2023-05-09T13:16:19.494Z,26.24
2023-05-09T13:18:49.998Z,26.24
2023-05-09T13:21:20.695Z,26.25
2023-05-09T13:23:52.196Z,26.31
2023-05-09T13:26:22.720Z,26.36
2023-05-09T13:28:55.015Z,26.41
2023-05-09T13:31:28.685Z,26.45
2023-05-09T13:34:00.305Z,26.50
2023-05-09T13:36:31.498Z,26.55
2023-05-09T13:39:01.856Z,26.59
2023-05-09T13:41:34.504Z,26.63
2023-05-09T13:44:06.377Z,26.67
2023-05-09T13:46:37.378Z,26.70
2023-05-09T13:49:10.313Z,26.68
2023-05-09T13:51:40.744Z,26.63
2023-05-09T13:54:12.845Z,26.57
2023-05-09T13:56:43.368Z,26.49
2023-05-09T13:59:13.657Z,26.36
2023-05-09T14:01:43.881Z,26.23
2023-05-09T14:04:16.618Z,26.07
2023-05-09T14:06:48.336Z,25.88
2023-05-09T14:09:22.268Z,25.73
2023-05-09T14:11:52.956Z,25.60
2023-05-09T14:14:24.210Z,25.48
2023-05-09T14:16:54.674Z,25.38
2023-05-09T14:19:26.750Z,25.29
2023-05-09T14:21:57.163Z,25.19
2023-05-09T14:24:30.857Z,25.11
2023-05-09T14:27:01.414Z,25.01
2023-05-09T14:29:31.996Z,24.92
2023-05-09T14:32:02.502Z,24.83
2023-05-09T14:34:33.100Z,24.72
2023-05-09T14:37:03.490Z,24.63
2023-05-09T14:39:33.680Z,24.54
2023-05-09T14:42:05.661Z,24.38
2023-05-09T14:44:36.356Z,24.21
2023-05-09T14:47:10.008Z,24.05
2023-05-09T14:49:41.114Z,23.91
2023-05-09T14:52:11.814Z,23.77
2023-05-09T14:54:42.867Z,23.66
2023-05-09T14:57:20.853Z,23.55
2023-05-09T14:59:51.213Z,23.49
2023-05-09T15:02:21.556Z,23.45
2023-05-09T15:04:51.956Z,23.42
2023-05-09T15:07:22.384Z,23.39
2023-05-09T15:09:52.604Z,23.34
2023-05-09T15:12:23.318Z,23.27
2023-05-09T15:14:55.561Z,23.18
2023-05-09T15:17:26.679Z,23.09
2023-05-09T15:19:58.999Z,23.00
2023-05-09T15:22:33.781Z,22.90
2023-05-09T15:25:06.213Z,22.79
2023-05-09T15:27:36.985Z,22.69
2023-05-09T15:30:08.946Z,22.58
2023-05-09T15:32:42.623Z,22.49
2023-05-09T15:35:14.205Z,22.40
2023-05-09T15:37:45.965Z,22.31
2023-05-09T15:40:17.295Z,22.21
2023-05-09T15:42:48.875Z,22.11
2023-05-09T15:45:19.908Z,22.02
2023-05-09T15:47:50.181Z,21.92
2023-05-09T15:50:21.074Z,21.82
2023-05-09T15:52:52.736Z,21.70
2023-05-09T15:55:23.298Z,21.55
2023-05-09T15:57:53.725Z,21.43
2023-05-09T16:00:28.019Z,21.32
2023-05-09T16:03:02.172Z,21.23
2023-05-09T16:05:32.713Z,21.11
2023-05-09T16:08:03.081Z,21.02
2023-05-09T16:10:34.423Z,20.91
2023-05-09T16:13:04.915Z,20.83
2023-05-09T16:15:35.809Z,20.74
2023-05-09T16:18:07.891Z,20.66
2023-05-09T16:20:39.232Z,20.57
2023-05-09T16:23:10.467Z,20.48
2023-05-09T16:25:41.424Z,20.38
2023-05-09T16:28:16.685Z,20.28
2023-05-09T16:30:48.979Z,20.18
2023-05-09T16:33:19.902Z,20.07
2023-05-09T16:35:53.697Z,19.96
2023-05-09T16:38:24.406Z,19.87
2023-05-09T16:40:55.559Z,19.79
2023-05-09T16:43:27.174Z,19.72
2023-05-09T16:45:59.998Z,19.65
2023-05-09T16:48:34.117Z,19.58
2023-05-09T16:51:08.886Z,19.52
2023-05-09T16:53:39.496Z,19.46
2023-05-09T16:56:10.865Z,19.42
2023-05-09T16:58:41.610Z,19.39
2023-05-09T17:01:11.936Z,19.35
2023-05-09T17:03:44.223Z,19.30
2023-05-09T17:06:15.781Z,19.25
2023-05-09T17:08:47.031Z,19.20
2023-05-09T17:11:17.692Z,19.15
2023-05-09T17:13:51.390Z,19.10
2023-05-09T17:16:25.661Z,19.06
2023-05-09T17:18:56.093Z,19.04
2023-05-09T17:21:28.922Z,19.00
2023-05-09T17:23:59.428Z,18.95
2023-05-09T17:26:30.323Z,18.91
2023-05-09T17:29:00.758Z,18.86
2023-05-09T17:31:31.808Z,18.80
2023-05-09T17:34:02.036Z,18.74
2023-05-09T17:36:34.575Z,18.66
2023-05-09T17:39:07.465Z,18.58
2023-05-09T17:41:38.165Z,18.52
2023-05-09T17:44:08.508Z,18.48
2023-05-09T17:46:39.035Z,18.44
2023-05-09T17:49:14.205Z,18.40
2023-05-09T17:51:45.132Z,18.34
2023-05-09T17:54:15.625Z,18.29
2023-05-09T17:56:46.334Z,18.26
2023-05-09T17:59:16.528Z,18.23
2023-05-09T18:01:46.795Z,18.20
2023-05-09T18:04:19.039Z,18.16
2023-05-09T18:06:50.637Z,18.12
2023-05-09T18:09:23.798Z,18.11
2023-05-09T18:12:00.172Z,18.10
2023-05-09T18:14:30.553Z,18.09
2023-05-09T18:17:03.072Z,18.09
2023-05-09T18:19:35.509Z,18.10
2023-05-09T18:22:07.007Z,18.09
2023-05-09T18:24:37.831Z,18.07
2023-05-09T18:27:08.452Z,18.05
2023-05-09T18:29:45.298Z,18.03
2023-05-09T18:32:16.056Z,18.00
2023-05-09T18:34:50.236Z,17.98
2023-05-09T18:37:22.831Z,17.96
2023-05-09T18:39:55.380Z,17.92
2023-05-09T18:42:26.964Z,17.87
2023-05-09T18:44:57.558Z,17.83
2023-05-09T18:47:28.743Z,17.79
2023-05-09T18:50:02.347Z,17.75
2023-05-09T18:52:34.008Z,17.70
2023-05-09T18:55:08.299Z,17.67
2023-05-09T18:57:42.139Z,17.66
2023-05-09T19:00:16.255Z,17.66
2023-05-09T19:02:46.948Z,17.67
2023-05-09T19:05:17.349Z,17.67
2023-05-09T19:07:47.692Z,17.68
2023-05-09T19:10:20.790Z,17.69
2023-05-09T19:12:51.315Z,17.70
2023-05-09T19:15:23.157Z,17.71
2023-05-09T19:17:55.756Z,17.72
2023-05-09T19:20:30.523Z,17.73
2023-05-09T19:23:02.366Z,17.74
2023-05-09T19:25:33.510Z,17.76
2023-05-09T19:28:03.997Z,17.77
2023-05-09T19:30:35.737Z,17.79
2023-05-09T19:33:06.379Z,17.81
2023-05-09T19:35:38.026Z,17.86
2023-05-09T19:38:11.630Z,17.90
2023-05-09T19:40:42.213Z,17.97
2023-05-09T19:43:15.617Z,17.99
2023-05-09T19:45:46.194Z,18.01
2023-05-09T19:48:16.871Z,18.02
2023-05-09T19:50:48.073Z,18.03
2023-05-09T19:53:18.343Z,18.03
2023-05-09T19:55:48.657Z,18.03
2023-05-09T19:58:19.034Z,18.02
2023-05-09T20:00:51.264Z,18.02
2023-05-09T20:03:21.601Z,18.00
2023-05-09T20:05:55.143Z,17.98
2023-05-09T20:08:25.801Z,17.98
2023-05-09T20:10:57.021Z,17.97
2023-05-09T20:13:27.294Z,17.96
2023-05-09T20:15:58.718Z,17.94
2023-05-09T20:18:29.266Z,17.90
2023-05-09T20:20:59.396Z,17.85
2023-05-09T20:23:31.785Z,17.84
2023-05-09T20:26:02.546Z,17.82
2023-05-09T20:28:33.430Z,17.79
2023-05-09T20:31:03.607Z,17.78
2023-05-09T20:33:35.094Z,17.75
2023-05-09T20:36:09.008Z,17.71
2023-05-09T20:38:39.670Z,17.66
2023-05-09T20:41:10.161Z,17.60
2023-05-09T20:43:40.339Z,17.53
2023-05-09T20:46:10.794Z,17.47
2023-05-09T20:48:40.952Z,17.43
2023-05-09T20:51:11.450Z,17.39
2023-05-09T20:53:41.908Z,17.33
2023-05-09T20:56:12.010Z,17.30
2023-05-09T20:58:42.415Z,17.29
2023-05-09T21:01:12.912Z,17.27
2023-05-09T21:03:43.515Z,17.23
2023-05-09T21:06:13.750Z,17.17
2023-05-09T21:08:44.979Z,17.10
2023-05-09T21:11:17.418Z,17.06
2023-05-09T21:13:47.678Z,17.03
2023-05-09T21:16:17.972Z,17.01
2023-05-09T21:18:48.311Z,17.00
2023-05-09T21:21:18.917Z,16.97
2023-05-09T21:23:50.009Z,16.97
2023-05-09T21:26:21.126Z,16.95
2023-05-09T21:28:51.527Z,16.91
2023-05-09T21:31:21.896Z,16.86
2023-05-09T21:33:52.444Z,16.81
2023-05-09T21:36:22.832Z,16.77
2023-05-09T21:38:52.835Z,16.72
2023-05-09T21:41:23.815Z,16.69
2023-05-09T21:43:54.420Z,16.67
2023-05-09T21:46:25.309Z,16.66
2023-05-09T21:48:55.494Z,16.63
2023-05-09T21:51:25.642Z,16.60
2023-05-09T21:53:56.135Z,16.58
2023-05-09T21:56:26.316Z,16.55
2023-05-09T21:58:57.341Z,16.51
2023-05-09T22:01:31.103Z,16.46
2023-05-09T22:04:02.392Z,16.44
2023-05-09T22:06:32.617Z,16.41
2023-05-09T22:09:03.018Z,16.38
2023-05-09T22:11:33.263Z,16.35
2023-05-09T22:14:03.444Z,16.31
2023-05-09T22:16:33.972Z,16.30
2023-05-09T22:19:04.590Z,16.27
2023-05-09T22:21:34.689Z,16.23
2023-05-09T22:24:06.808Z,16.21
2023-05-09T22:26:37.142Z,16.19
2023-05-09T22:29:07.364Z,16.16
2023-05-09T22:31:38.774Z,16.17
2023-05-09T22:34:09.027Z,16.17
2023-05-09T22:36:39.264Z,16.14
2023-05-09T22:39:09.436Z,16.11
2023-05-09T22:41:39.934Z,16.09
2023-05-09T22:44:10.135Z,16.08
2023-05-09T22:46:40.392Z,16.06
2023-05-09T22:49:10.747Z,16.05
2023-05-09T22:51:41.090Z,16.03
2023-05-09T22:54:11.451Z,16.00
2023-05-09T22:56:42.828Z,15.96
2023-05-09T22:59:14.259Z,15.91
2023-05-09T23:01:44.661Z,15.89
2023-05-09T23:04:16.318Z,15.86
2023-05-09T23:06:49.790Z,15.82
2023-05-09T23:09:20.806Z,15.78
2023-05-09T23:11:51.462Z,15.75
2023-05-09T23:14:21.949Z,15.73
2023-05-09T23:16:52.447Z,15.72
2023-05-09T23:19:22.938Z,15.71
2023-05-09T23:21:53.661Z,15.69
2023-05-09T23:24:23.898Z,15.64
2023-05-09T23:26:55.441Z,15.61
2023-05-09T23:29:26.122Z,15.57
2023-05-09T23:31:56.425Z,15.54
2023-05-09T23:34:26.734Z,15.51
2023-05-09T23:36:57.023Z,15.48
2023-05-09T23:39:27.551Z,15.46
2023-05-09T23:41:58.252Z,15.45
2023-05-09T23:44:28.569Z,15.46
2023-05-09T23:46:58.949Z,15.46
2023-05-09T23:49:29.529Z,15.46
2023-05-09T23:51:59.791Z,15.46
2023-05-09T23:54:30.382Z,15.42
2023-05-09T23:57:00.816Z,15.42
2023-05-09T23:59:31.222Z,15.41
